Dyess AFB, Texas
Current Conditions -  °F | °C
As of 4:58 AM on Friday 28 Nov 2014 (Local Time) from KDYS Reporting Station
Clear Clear  
Wind Chill: 42°   Ceiling: Unl
Heat Index: 48°   Visibility: 10mi
Dew Point: 35°   Wind: 16mph
Humidity: 60%   Direction: 220°SW
Pressure: 30.19"   Gusts: NA
Location:  32.42°N, 99.82°W
Report Text: KDYS 281058Z AUTO 22014KT 10SM CLR 09/02 A3019 RMK AO2 SLP211 T00910017 $
Loading
Personal Weather Stations






























Interactive Weather Map New forecast layout! Learn more

10-Day Weather Forecast

Advertisements
Track Severe Weather on mobile